»·PEaware :: N5055J KBUR-KPSP

N5055J :: KBUR-KPSP

FLIGHT INFORMATION

Flight Status: Arrived
Operator: Privately registered:
United States
More flights under this callsign
Pilot: Scott M. (16181)
Aircraft: Unknown
(X-EF)
More flights by this aircraft type
Origin: KBUR Bob Hope-Burbank
United States
Destination: KPSP Palm Springs Intl
United States
More flights between these airports :: More routes between these airports
Route:
File this flight plan on PilotEdge
Remarks:
Altitude:
(Current/Filed)
7,500ft
Speed:
(Current/Filed)
100kts
Departed: 18-Oct-18 04:42 PM
Arrived: 18-Oct-18 05:59 PM
Distance/Time
Traveled:
95nm/1:17
Distance/Time
To Go:
Arrived

Flight Plot

Page will automatically refresh every two minutes.


Map Options




Map Legend


Flown Route
Filed Route
Departure Airport
Arrival Airport
Navaid (VOR, NDB)
Fix

Horizontal Profiles

Position Reports

Time Latitude Longitude Heading Altitude Ground
Speed
18-Oct-18 16:33 34.200203 -118.358746 263 737ft 0kts
18-Oct-18 16:34 34.200203 -118.358746 263 737ft 0kts
18-Oct-18 16:35 34.200203 -118.358746 263 737ft 0kts
18-Oct-18 16:36 34.200203 -118.358746 263 737ft 0kts
18-Oct-18 16:37 34.199659 -118.358416 136 737ft 4kts
18-Oct-18 16:38 34.198899 -118.358604 270 737ft 9kts
18-Oct-18 16:39 34.198965 -118.363102 271 737ft 13kts
18-Oct-18 16:40 34.199122 -118.367659 273 737ft 16kts
18-Oct-18 16:41 34.198799 -118.369067 171 737ft 0kts
18-Oct-18 16:42 34.198799 -118.369067 171 737ft 0kts
18-Oct-18 16:43 34.198722 -118.369061 174 737ft 4kts
18-Oct-18 16:44 34.198118 -118.359168 89 1019ft 67kts
18-Oct-18 16:45 34.189683 -118.339567 139 1976ft 74kts
18-Oct-18 16:46 34.172660 -118.320268 135 2535ft 100kts
18-Oct-18 16:47 34.164361 -118.291287 105 3255ft 86kts
18-Oct-18 16:48 34.162309 -118.262992 95 3995ft 78kts
18-Oct-18 16:49 34.162255 -118.237300 92 4514ft 75kts
18-Oct-18 16:50 34.162690 -118.212080 93 5152ft 76kts
18-Oct-18 16:51 34.163142 -118.186902 94 5829ft 78kts
18-Oct-18 16:52 34.162593 -118.161038 96 6482ft 77kts
18-Oct-18 16:53 34.161900 -118.139665 97 7002ft 75kts
18-Oct-18 16:54 34.160229 -118.108949 97 7553ft 73kts
18-Oct-18 16:55 34.160262 -118.082984 86 7379ft 90kts
18-Oct-18 16:56 34.158657 -118.052763 82 7555ft 88kts
18-Oct-18 16:57 34.158702 -118.028212 80 7540ft 87kts
18-Oct-18 16:58 34.159920 -117.993888 81 7522ft 88kts
18-Oct-18 16:59 34.160548 -117.969227 81 7520ft 89kts
18-Oct-18 17:00 34.160840 -117.939690 81 7530ft 88kts
18-Oct-18 17:01 34.160481 -117.909684 88 7495ft 90kts
18-Oct-18 17:02 34.159524 -117.879950 86 7508ft 89kts
18-Oct-18 17:03 34.157117 -117.850735 84 7557ft 87kts
18-Oct-18 17:04 34.159146 -117.822026 61 7581ft 83kts
18-Oct-18 17:05 34.159858 -117.792831 82 7556ft 89kts
18-Oct-18 17:06 34.160382 -117.763106 78 7517ft 88kts
18-Oct-18 17:07 34.160416 -117.733526 81 7495ft 86kts
18-Oct-18 17:08 34.160500 -117.705237 80 7542ft 82kts
18-Oct-18 17:09 34.161468 -117.677609 76 7566ft 81kts
18-Oct-18 17:10 34.162451 -117.649623 79 7523ft 85kts
18-Oct-18 17:11 34.162265 -117.621119 83 7499ft 83kts
18-Oct-18 17:12 34.163058 -117.593894 79 7493ft 82kts
18-Oct-18 17:13 34.164241 -117.566714 77 7490ft 81kts
18-Oct-18 17:14 34.165984 -117.539722 80 7496ft 81kts
18-Oct-18 17:15 34.166094 -117.512442 72 7546ft 79kts
18-Oct-18 17:16 34.165939 -117.484767 91 7589ft 83kts
18-Oct-18 17:17 34.165437 -117.457003 80 7613ft 82kts
18-Oct-18 17:18 34.165856 -117.428722 79 7543ft 87kts
18-Oct-18 17:19 34.166868 -117.402806 84 7488ft 84kts
18-Oct-18 17:20 34.165581 -117.374289 89 7440ft 85kts
18-Oct-18 17:21 34.162176 -117.346409 93 7489ft 85kts
18-Oct-18 17:22 34.159078 -117.319081 89 7602ft 81kts
18-Oct-18 17:23 34.155887 -117.291276 87 7556ft 81kts
18-Oct-18 17:24 34.153978 -117.263926 90 7537ft 81kts
18-Oct-18 17:25 34.151751 -117.236822 98 7511ft 83kts
18-Oct-18 17:26 34.141450 -117.211553 115 7499ft 84kts
18-Oct-18 17:27 34.129681 -117.187634 114 7521ft 83kts
18-Oct-18 17:28 34.117361 -117.164119 120 7539ft 84kts
18-Oct-18 17:29 34.106589 -117.139269 112 7528ft 81kts
18-Oct-18 17:30 34.094811 -117.115961 116 7558ft 81kts
18-Oct-18 17:31 34.083028 -117.092464 113 7563ft 82kts
18-Oct-18 17:32 34.071782 -117.069075 117 7572ft 81kts
18-Oct-18 17:33 34.061083 -117.045114 111 7517ft 82kts
18-Oct-18 17:34 34.049117 -117.021599 113 7484ft 81kts
18-Oct-18 17:35 34.037710 -116.998431 106 7463ft 78kts
18-Oct-18 17:36 34.028089 -116.974638 107 7474ft 77kts
18-Oct-18 17:37 34.021115 -116.950392 104 7514ft 77kts
18-Oct-18 17:38 34.013566 -116.925852 101 7518ft 78kts
18-Oct-18 17:39 34.006156 -116.901305 101 7436ft 77kts
18-Oct-18 17:40 33.998315 -116.876815 105 7306ft 79kts
18-Oct-18 17:41 33.988730 -116.852919 105 7007ft 79kts
18-Oct-18 17:42 33.980168 -116.828496 109 6779ft 80kts
18-Oct-18 17:43 33.970825 -116.803866 102 6523ft 80kts
18-Oct-18 17:44 33.962910 -116.777936 103 6226ft 84kts
18-Oct-18 17:45 33.957159 -116.761585 105 6035ft 85kts
18-Oct-18 17:46 33.949039 -116.735113 96 5640ft 82kts
18-Oct-18 17:47 33.941879 -116.709194 101 5321ft 82kts
18-Oct-18 17:48 33.937764 -116.682796 88 4938ft 79kts
18-Oct-18 17:49 33.933562 -116.655845 95 4413ft 84kts
18-Oct-18 17:50 33.928446 -116.628776 100 3776ft 82kts
18-Oct-18 17:51 33.916736 -116.605500 147 3217ft 83kts
18-Oct-18 17:52 33.896940 -116.590859 151 2467ft 84kts
18-Oct-18 17:53 33.880049 -116.573412 138 1874ft 80kts
18-Oct-18 17:54 33.863806 -116.557838 144 1581ft 71kts
18-Oct-18 17:55 33.847146 -116.545551 150 1460ft 69kts
18-Oct-18 17:56 33.831048 -116.533322 143 1366ft 68kts
18-Oct-18 17:57 33.814048 -116.522401 156 1480ft 69kts
18-Oct-18 17:58 33.802102 -116.507453 91 1305ft 64kts
18-Oct-18 17:59 33.806703 -116.490325 22 1057ft 53kts
18-Oct-18 18:00 33.819397 -116.498542 329 499ft 48kts
18-Oct-18 18:01 33.823205 -116.502618 273 429ft 8kts
18-Oct-18 18:02 33.824174 -116.504829 322 429ft 10kts
18-Oct-18 18:03 33.825786 -116.507301 278 429ft 6kts

Navigation Log

Ident Type
1. KBUR Airport
2. KPSP Airport